sensor_id;sensor_type;location;lat;lon;timestamp;temperature;humidity
69944;DHT22;57257;48.408;-4.498;2023-09-18T00:00:46;19.41;71.72
69944;DHT22;57257;48.408;-4.498;2023-09-18T00:03:12;19.44;72.02
69944;DHT22;57257;48.408;-4.498;2023-09-18T00:05:37;19.41;72.00
69944;DHT22;57257;48.408;-4.498;2023-09-18T00:08:03;19.40;72.36
69944;DHT22;57257;48.408;-4.498;2023-09-18T00:10:28;19.38;72.93
69944;DHT22;57257;48.408;-4.498;2023-09-18T00:12:56;19.38;73.54
69944;DHT22;57257;48.408;-4.498;2023-09-18T00:15:21;19.38;73.17
69944;DHT22;57257;48.408;-4.498;2023-09-18T00:17:47;19.38;73.95
69944;DHT22;57257;48.408;-4.498;2023-09-18T00:20:12;19.34;73.96
69944;DHT22;57257;48.408;-4.498;2023-09-18T00:22:38;19.36;74.43
69944;DHT22;57257;48.408;-4.498;2023-09-18T00:25:04;19.37;74.35
69944;DHT22;57257;48.408;-4.498;2023-09-18T00:27:30;19.36;75.04
69944;DHT22;57257;48.408;-4.498;2023-09-18T00:29:55;19.37;75.24
69944;DHT22;57257;48.408;-4.498;2023-09-18T00:32:21;19.36;75.46
69944;DHT22;57257;48.408;-4.498;2023-09-18T00:34:46;19.31;75.51
69944;DHT22;57257;48.408;-4.498;2023-09-18T00:37:12;19.30;75.84
69944;DHT22;57257;48.408;-4.498;2023-09-18T00:39:38;19.34;76.11
69944;DHT22;57257;48.408;-4.498;2023-09-18T00:42:04;19.33;76.28
69944;DHT22;57257;48.408;-4.498;2023-09-18T00:44:29;19.31;76.42
69944;DHT22;57257;48.408;-4.498;2023-09-18T00:46:55;19.34;76.80
69944;DHT22;57257;48.408;-4.498;2023-09-18T00:49:22;19.33;77.22
69944;DHT22;57257;48.408;-4.498;2023-09-18T00:51:49;19.30;77.10
69944;DHT22;57257;48.408;-4.498;2023-09-18T00:54:16;19.30;77.37
69944;DHT22;57257;48.408;-4.498;2023-09-18T00:56:44;19.28;77.71
69944;DHT22;57257;48.408;-4.498;2023-09-18T00:59:10;19.27;77.77
69944;DHT22;57257;48.408;-4.498;2023-09-18T01:01:37;19.26;77.64
69944;DHT22;57257;48.408;-4.498;2023-09-18T01:04:03;19.28;77.61
69944;DHT22;57257;48.408;-4.498;2023-09-18T01:06:29;19.28;77.85
69944;DHT22;57257;48.408;-4.498;2023-09-18T01:08:56;19.31;77.89
69944;DHT22;57257;48.408;-4.498;2023-09-18T01:11:38;19.31;78.07
69944;DHT22;57257;48.408;-4.498;2023-09-18T01:14:21;19.28;78.11
69944;DHT22;57257;48.408;-4.498;2023-09-18T01:16:59;19.31;77.90
69944;DHT22;57257;48.408;-4.498;2023-09-18T01:19:41;19.30;78.21
69944;DHT22;57257;48.408;-4.498;2023-09-18T01:22:08;19.34;78.08
69944;DHT22;57257;48.408;-4.498;2023-09-18T01:24:34;19.30;78.39
69944;DHT22;57257;48.408;-4.498;2023-09-18T01:27:00;19.30;78.30
69944;DHT22;57257;48.408;-4.498;2023-09-18T01:29:26;19.30;78.41
69944;DHT22;57257;48.408;-4.498;2023-09-18T01:31:52;19.31;78.31
69944;DHT22;57257;48.408;-4.498;2023-09-18T01:34:21;19.33;78.30
69944;DHT22;57257;48.408;-4.498;2023-09-18T01:36:49;19.34;78.25
69944;DHT22;57257;48.408;-4.498;2023-09-18T01:39:15;19.33;78.08
69944;DHT22;57257;48.408;-4.498;2023-09-18T01:41:42;19.31;78.23
69944;DHT22;57257;48.408;-4.498;2023-09-18T01:44:07;19.33;78.31
69944;DHT22;57257;48.408;-4.498;2023-09-18T01:46:33;19.36;78.17
69944;DHT22;57257;48.408;-4.498;2023-09-18T01:49:02;19.34;78.16
69944;DHT22;57257;48.408;-4.498;2023-09-18T01:51:28;19.34;78.16
69944;DHT22;57257;48.408;-4.498;2023-09-18T01:53:55;19.33;78.14
69944;DHT22;57257;48.408;-4.498;2023-09-18T01:56:21;19.27;78.33
69944;DHT22;57257;48.408;-4.498;2023-09-18T01:58:47;19.28;78.39
69944;DHT22;57257;48.408;-4.498;2023-09-18T02:01:12;19.24;78.42
69944;DHT22;57257;48.408;-4.498;2023-09-18T02:03:38;19.28;78.57
69944;DHT22;57257;48.408;-4.498;2023-09-18T02:06:07;19.23;78.77
69944;DHT22;57257;48.408;-4.498;2023-09-18T02:08:34;19.22;78.92
69944;DHT22;57257;48.408;-4.498;2023-09-18T02:10:59;19.20;78.89
69944;DHT22;57257;48.408;-4.498;2023-09-18T02:13:25;19.20;78.91
69944;DHT22;57257;48.408;-4.498;2023-09-18T02:15:50;19.23;78.86
69944;DHT22;57257;48.408;-4.498;2023-09-18T02:18:16;19.24;78.86
69944;DHT22;57257;48.408;-4.498;2023-09-18T02:20:42;19.24;78.71
69944;DHT22;57257;48.408;-4.498;2023-09-18T02:23:09;19.22;78.83
69944;DHT22;57257;48.408;-4.498;2023-09-18T02:25:34;19.20;78.78
69944;DHT22;57257;48.408;-4.498;2023-09-18T02:28:00;19.17;78.71
69944;DHT22;57257;48.408;-4.498;2023-09-18T02:30:25;19.13;78.90
69944;DHT22;57257;48.408;-4.498;2023-09-18T02:32:51;19.13;78.85
69944;DHT22;57257;48.408;-4.498;2023-09-18T02:35:16;19.10;78.79
69944;DHT22;57257;48.408;-4.498;2023-09-18T02:37:41;19.10;78.73
69944;DHT22;57257;48.408;-4.498;2023-09-18T02:40:07;19.06;78.71
69944;DHT22;57257;48.408;-4.498;2023-09-18T02:42:33;19.03;78.78
69944;DHT22;57257;48.408;-4.498;2023-09-18T02:44:58;19.00;78.69
69944;DHT22;57257;48.408;-4.498;2023-09-18T02:47:24;18.99;78.61
69944;DHT22;57257;48.408;-4.498;2023-09-18T02:49:49;18.98;78.60
69944;DHT22;57257;48.408;-4.498;2023-09-18T02:52:14;18.96;78.68
69944;DHT22;57257;48.408;-4.498;2023-09-18T02:54:40;18.95;78.83
69944;DHT22;57257;48.408;-4.498;2023-09-18T02:57:05;18.91;78.93
69944;DHT22;57257;48.408;-4.498;2023-09-18T02:59:31;18.89;79.05
69944;DHT22;57257;48.408;-4.498;2023-09-18T03:01:57;18.86;79.09
69944;DHT22;57257;48.408;-4.498;2023-09-18T03:06:57;18.79;79.28
69944;DHT22;57257;48.408;-4.498;2023-09-18T03:09:23;18.83;79.10
69944;DHT22;57257;48.408;-4.498;2023-09-18T03:11:48;18.85;79.10
69944;DHT22;57257;48.408;-4.498;2023-09-18T03:14:14;18.82;78.91
69944;DHT22;57257;48.408;-4.498;2023-09-18T03:16:39;18.77;78.96
69944;DHT22;57257;48.408;-4.498;2023-09-18T03:19:05;18.79;79.08
69944;DHT22;57257;48.408;-4.498;2023-09-18T03:21:30;18.81;79.09
69944;DHT22;57257;48.408;-4.498;2023-09-18T03:23:58;18.76;78.94
69944;DHT22;57257;48.408;-4.498;2023-09-18T03:26:24;18.75;79.10
69944;DHT22;57257;48.408;-4.498;2023-09-18T03:28:49;18.72;78.87
69944;DHT22;57257;48.408;-4.498;2023-09-18T03:31:14;18.69;78.85
69944;DHT22;57257;48.408;-4.498;2023-09-18T03:33:40;18.66;78.94
69944;DHT22;57257;48.408;-4.498;2023-09-18T03:36:05;18.65;78.89
69944;DHT22;57257;48.408;-4.498;2023-09-18T03:38:31;18.62;78.92
69944;DHT22;57257;48.408;-4.498;2023-09-18T03:40:59;18.61;78.93
69944;DHT22;57257;48.408;-4.498;2023-09-18T03:43:26;18.56;79.10
69944;DHT22;57257;48.408;-4.498;2023-09-18T03:45:51;18.61;79.18
69944;DHT22;57257;48.408;-4.498;2023-09-18T03:48:16;18.61;79.25
69944;DHT22;57257;48.408;-4.498;2023-09-18T03:50:42;18.62;79.19
69944;DHT22;57257;48.408;-4.498;2023-09-18T03:53:09;18.66;79.35
69944;DHT22;57257;48.408;-4.498;2023-09-18T03:55:34;18.71;79.28
69944;DHT22;57257;48.408;-4.498;2023-09-18T03:58:00;18.73;79.20
69944;DHT22;57257;48.408;-4.498;2023-09-18T04:00:25;18.71;79.23
69944;DHT22;57257;48.408;-4.498;2023-09-18T04:02:51;18.73;79.55
69944;DHT22;57257;48.408;-4.498;2023-09-18T04:05:16;18.81;79.16
69944;DHT22;57257;48.408;-4.498;2023-09-18T04:07:42;18.81;79.09
69944;DHT22;57257;48.408;-4.498;2023-09-18T04:10:11;18.79;79.20
69944;DHT22;57257;48.408;-4.498;2023-09-18T04:12:43;18.76;79.21
69944;DHT22;57257;48.408;-4.498;2023-09-18T04:15:09;18.79;79.32
69944;DHT22;57257;48.408;-4.498;2023-09-18T04:17:34;18.81;79.12
69944;DHT22;57257;48.408;-4.498;2023-09-18T04:20:00;18.79;79.05
69944;DHT22;57257;48.408;-4.498;2023-09-18T04:22:25;18.77;79.01
69944;DHT22;57257;48.408;-4.498;2023-09-18T04:24:50;18.77;78.99
69944;DHT22;57257;48.408;-4.498;2023-09-18T04:27:16;18.76;79.02
69944;DHT22;57257;48.408;-4.498;2023-09-18T04:29:41;18.73;79.09
69944;DHT22;57257;48.408;-4.498;2023-09-18T04:32:06;18.76;79.02
69944;DHT22;57257;48.408;-4.498;2023-09-18T04:34:32;18.77;78.95
69944;DHT22;57257;48.408;-4.498;2023-09-18T04:36:57;18.82;79.01
69944;DHT22;57257;48.408;-4.498;2023-09-18T04:39:23;18.82;78.91
69944;DHT22;57257;48.408;-4.498;2023-09-18T04:41:48;18.82;78.88
69944;DHT22;57257;48.408;-4.498;2023-09-18T04:44:14;18.82;78.84
69944;DHT22;57257;48.408;-4.498;2023-09-18T04:46:40;18.81;78.84
69944;DHT22;57257;48.408;-4.498;2023-09-18T04:49:07;18.85;78.83
69944;DHT22;57257;48.408;-4.498;2023-09-18T04:51:32;18.86;78.70
69944;DHT22;57257;48.408;-4.498;2023-09-18T04:53:58;18.81;78.45
69944;DHT22;57257;48.408;-4.498;2023-09-18T04:56:24;18.82;78.56
69944;DHT22;57257;48.408;-4.498;2023-09-18T04:58:51;18.81;78.43
69944;DHT22;57257;48.408;-4.498;2023-09-18T05:01:16;18.85;78.45
69944;DHT22;57257;48.408;-4.498;2023-09-18T05:03:42;18.83;78.35
69944;DHT22;57257;48.408;-4.498;2023-09-18T05:06:08;18.83;78.43
69944;DHT22;57257;48.408;-4.498;2023-09-18T05:08:33;18.85;78.55
69944;DHT22;57257;48.408;-4.498;2023-09-18T05:10:59;18.86;78.50
69944;DHT22;57257;48.408;-4.498;2023-09-18T05:13:24;18.86;78.42
69944;DHT22;57257;48.408;-4.498;2023-09-18T05:15:50;18.86;78.39
69944;DHT22;57257;48.408;-4.498;2023-09-18T05:18:15;18.85;78.45
69944;DHT22;57257;48.408;-4.498;2023-09-18T05:20:41;18.89;78.40
69944;DHT22;57257;48.408;-4.498;2023-09-18T05:23:07;18.88;78.15
69944;DHT22;57257;48.408;-4.498;2023-09-18T05:25:34;18.88;78.13
69944;DHT22;57257;48.408;-4.498;2023-09-18T05:28:03;18.91;78.14
69944;DHT22;57257;48.408;-4.498;2023-09-18T05:30:32;18.86;78.25
69944;DHT22;57257;48.408;-4.498;2023-09-18T05:33:00;18.85;78.29
69944;DHT22;57257;48.408;-4.498;2023-09-18T05:35:33;18.91;78.47
69944;DHT22;57257;48.408;-4.498;2023-09-18T05:37:58;18.92;78.53
69944;DHT22;57257;48.408;-4.498;2023-09-18T05:40:25;18.95;78.34
69944;DHT22;57257;48.408;-4.498;2023-09-18T05:42:54;18.95;78.36
69944;DHT22;57257;48.408;-4.498;2023-09-18T05:45:20;18.95;78.24
69944;DHT22;57257;48.408;-4.498;2023-09-18T05:47:45;18.92;78.27
69944;DHT22;57257;48.408;-4.498;2023-09-18T05:50:13;18.95;78.20
69944;DHT22;57257;48.408;-4.498;2023-09-18T05:52:43;18.95;78.18
69944;DHT22;57257;48.408;-4.498;2023-09-18T05:55:08;18.93;77.92
69944;DHT22;57257;48.408;-4.498;2023-09-18T05:57:35;18.93;77.93
69944;DHT22;57257;48.408;-4.498;2023-09-18T06:00:00;18.95;77.95
69944;DHT22;57257;48.408;-4.498;2023-09-18T06:02:26;18.93;78.11
69944;DHT22;57257;48.408;-4.498;2023-09-18T06:04:55;18.95;78.18
69944;DHT22;57257;48.408;-4.498;2023-09-18T06:07:26;18.98;77.93
69944;DHT22;57257;48.408;-4.498;2023-09-18T06:09:52;18.96;77.83
69944;DHT22;57257;48.408;-4.498;2023-09-18T06:12:18;18.96;77.83
69944;DHT22;57257;48.408;-4.498;2023-09-18T06:14:43;18.96;77.99
69944;DHT22;57257;48.408;-4.498;2023-09-18T06:17:11;18.99;77.89
69944;DHT22;57257;48.408;-4.498;2023-09-18T06:19:37;19.00;77.96
69944;DHT22;57257;48.408;-4.498;2023-09-18T06:22:02;19.02;77.87
69944;DHT22;57257;48.408;-4.498;2023-09-18T06:24:28;19.04;77.84
69944;DHT22;57257;48.408;-4.498;2023-09-18T06:26:53;19.03;77.65
69944;DHT22;57257;48.408;-4.498;2023-09-18T06:29:19;19.02;77.57
69944;DHT22;57257;48.408;-4.498;2023-09-18T06:31:45;19.00;77.59
69944;DHT22;57257;48.408;-4.498;2023-09-18T06:34:11;19.03;77.55
69944;DHT22;57257;48.408;-4.498;2023-09-18T06:36:36;19.06;77.70
69944;DHT22;57257;48.408;-4.498;2023-09-18T06:39:02;19.09;77.57
69944;DHT22;57257;48.408;-4.498;2023-09-18T06:41:28;19.06;77.44
69944;DHT22;57257;48.408;-4.498;2023-09-18T06:43:53;19.07;77.46
69944;DHT22;57257;48.408;-4.498;2023-09-18T06:46:19;19.06;77.37
69944;DHT22;57257;48.408;-4.498;2023-09-18T06:48:44;19.09;77.50
69944;DHT22;57257;48.408;-4.498;2023-09-18T06:51:15;19.13;77.59
69944;DHT22;57257;48.408;-4.498;2023-09-18T06:53:40;19.17;77.49
69944;DHT22;57257;48.408;-4.498;2023-09-18T06:56:06;19.16;77.16
69944;DHT22;57257;48.408;-4.498;2023-09-18T06:58:31;19.14;77.14
69944;DHT22;57257;48.408;-4.498;2023-09-18T07:00:57;19.14;77.04
69944;DHT22;57257;48.408;-4.498;2023-09-18T07:03:23;19.17;77.19
69944;DHT22;57257;48.408;-4.498;2023-09-18T07:05:49;19.14;77.19
69944;DHT22;57257;48.408;-4.498;2023-09-18T07:08:14;19.19;77.18
69944;DHT22;57257;48.408;-4.498;2023-09-18T07:10:44;19.19;77.22
69944;DHT22;57257;48.408;-4.498;2023-09-18T07:13:09;19.23;77.18
69944;DHT22;57257;48.408;-4.498;2023-09-18T07:15:36;19.23;77.12
69944;DHT22;57257;48.408;-4.498;2023-09-18T07:18:02;19.27;77.05
69944;DHT22;57257;48.408;-4.498;2023-09-18T07:20:28;19.26;76.96
69944;DHT22;57257;48.408;-4.498;2023-09-18T07:22:53;19.26;76.83
69944;DHT22;57257;48.408;-4.498;2023-09-18T07:25:19;19.27;76.98
69944;DHT22;57257;48.408;-4.498;2023-09-18T07:27:44;19.30;77.10
69944;DHT22;57257;48.408;-4.498;2023-09-18T07:30:11;19.31;77.11
69944;DHT22;57257;48.408;-4.498;2023-09-18T07:35:58;19.41;76.86
69944;DHT22;57257;48.408;-4.498;2023-09-18T07:38:24;19.46;76.78
69944;DHT22;57257;48.408;-4.498;2023-09-18T07:40:50;19.50;76.57
69944;DHT22;57257;48.408;-4.498;2023-09-18T07:43:15;19.54;76.47
69944;DHT22;57257;48.408;-4.498;2023-09-18T07:45:41;19.60;76.52
69944;DHT22;57257;48.408;-4.498;2023-09-18T07:48:07;19.63;76.29
69944;DHT22;57257;48.408;-4.498;2023-09-18T07:50:34;19.64;76.25
69944;DHT22;57257;48.408;-4.498;2023-09-18T07:53:00;19.67;75.96
69944;DHT22;57257;48.408;-4.498;2023-09-18T07:55:25;19.73;75.83
69944;DHT22;57257;48.408;-4.498;2023-09-18T07:57:51;19.70;75.83
69944;DHT22;57257;48.408;-4.498;2023-09-18T08:00:17;19.73;75.75
69944;DHT22;57257;48.408;-4.498;2023-09-18T08:02:43;19.77;75.64
69944;DHT22;57257;48.408;-4.498;2023-09-18T08:05:09;19.77;75.65
69944;DHT22;57257;48.408;-4.498;2023-09-18T08:07:36;19.82;75.43
69944;DHT22;57257;48.408;-4.498;2023-09-18T08:10:03;19.84;75.23
69944;DHT22;57257;48.408;-4.498;2023-09-18T08:12:32;19.84;75.19
69944;DHT22;57257;48.408;-4.498;2023-09-18T08:14:57;19.88;75.27
69944;DHT22;57257;48.408;-4.498;2023-09-18T08:17:24;19.91;75.23
69944;DHT22;57257;48.408;-4.498;2023-09-18T08:19:51;20.01;75.05
69944;DHT22;57257;48.408;-4.498;2023-09-18T08:22:20;20.05;74.60
69944;DHT22;57257;48.408;-4.498;2023-09-18T08:24:47;20.14;74.48
69944;DHT22;57257;48.408;-4.498;2023-09-18T08:27:14;20.18;74.57
69944;DHT22;57257;48.408;-4.498;2023-09-18T08:29:42;20.22;74.10
69944;DHT22;57257;48.408;-4.498;2023-09-18T08:32:08;20.21;74.02
69944;DHT22;57257;48.408;-4.498;2023-09-18T08:37:55;20.25;73.54
69944;DHT22;57257;48.408;-4.498;2023-09-18T08:40:22;20.21;73.61
69944;DHT22;57257;48.408;-4.498;2023-09-18T08:42:51;20.19;73.24
69944;DHT22;57257;48.408;-4.498;2023-09-18T08:45:38;20.15;73.30
69944;DHT22;57257;48.408;-4.498;2023-09-18T08:48:06;20.15;73.26
69944;DHT22;57257;48.408;-4.498;2023-09-18T08:50:33;20.21;73.40
69944;DHT22;57257;48.408;-4.498;2023-09-18T08:52:59;20.25;72.98
69944;DHT22;57257;48.408;-4.498;2023-09-18T08:55:24;20.38;73.23
69944;DHT22;57257;48.408;-4.498;2023-09-18T08:57:52;20.65;72.65
69944;DHT22;57257;48.408;-4.498;2023-09-18T09:00:22;20.96;72.43
69944;DHT22;57257;48.408;-4.498;2023-09-18T09:02:47;21.20;71.77
69944;DHT22;57257;48.408;-4.498;2023-09-18T09:05:16;21.26;71.11
69944;DHT22;57257;48.408;-4.498;2023-09-18T09:07:42;21.37;70.86
69944;DHT22;57257;48.408;-4.498;2023-09-18T09:10:07;21.34;70.37
69944;DHT22;57257;48.408;-4.498;2023-09-18T09:12:53;21.10;68.75
69944;DHT22;57257;48.408;-4.498;2023-09-18T09:15:23;21.04;69.13
69944;DHT22;57257;48.408;-4.498;2023-09-18T09:17:49;21.06;68.72
69944;DHT22;57257;48.408;-4.498;2023-09-18T09:20:15;21.08;67.92
69944;DHT22;57257;48.408;-4.498;2023-09-18T09:22:41;21.30;68.47
69944;DHT22;57257;48.408;-4.498;2023-09-18T09:25:28;21.28;67.97
69944;DHT22;57257;48.408;-4.498;2023-09-18T09:27:57;21.46;68.35
69944;DHT22;57257;48.408;-4.498;2023-09-18T09:30:25;21.61;66.89
69944;DHT22;57257;48.408;-4.498;2023-09-18T09:32:52;21.65;67.30
69944;DHT22;57257;48.408;-4.498;2023-09-18T09:35:24;21.67;66.18
69944;DHT22;57257;48.408;-4.498;2023-09-18T09:37:57;21.73;65.17
69944;DHT22;57257;48.408;-4.498;2023-09-18T09:40:24;21.67;65.48
69944;DHT22;57257;48.408;-4.498;2023-09-18T09:42:52;21.55;64.27
69944;DHT22;57257;48.408;-4.498;2023-09-18T09:45:19;21.43;64.63
69944;DHT22;57257;48.408;-4.498;2023-09-18T09:47:45;21.51;64.55
69944;DHT22;57257;48.408;-4.498;2023-09-18T09:50:11;21.48;63.60
69944;DHT22;57257;48.408;-4.498;2023-09-18T09:52:47;21.53;63.54
69944;DHT22;57257;48.408;-4.498;2023-09-18T09:55:30;21.58;62.31
69944;DHT22;57257;48.408;-4.498;2023-09-18T09:58:04;21.58;62.13
69944;DHT22;57257;48.408;-4.498;2023-09-18T10:00:45;21.65;61.45
69944;DHT22;57257;48.408;-4.498;2023-09-18T10:03:17;21.64;60.34
69944;DHT22;57257;48.408;-4.498;2023-09-18T10:05:44;21.57;61.00
69944;DHT22;57257;48.408;-4.498;2023-09-18T10:11:33;21.53;60.19
69944;DHT22;57257;48.408;-4.498;2023-09-18T10:14:09;21.46;60.85
69944;DHT22;57257;48.408;-4.498;2023-09-18T10:16:40;21.61;60.41
69944;DHT22;57257;48.408;-4.498;2023-09-18T10:25:20;22.08;59.33
69944;DHT22;57257;48.408;-4.498;2023-09-18T10:27:50;22.13;57.92
69944;DHT22;57257;48.408;-4.498;2023-09-18T10:30:20;22.18;57.96
69944;DHT22;57257;48.408;-4.498;2023-09-18T10:32:48;22.23;58.18
69944;DHT22;57257;48.408;-4.498;2023-09-18T10:35:15;22.31;57.96
69944;DHT22;57257;48.408;-4.498;2023-09-18T10:37:45;22.39;57.86
69944;DHT22;57257;48.408;-4.498;2023-09-18T10:40:12;22.45;57.48
69944;DHT22;57257;48.408;-4.498;2023-09-18T10:42:39;22.46;57.37
69944;DHT22;57257;48.408;-4.498;2023-09-18T10:45:06;22.42;56.54
69944;DHT22;57257;48.408;-4.498;2023-09-18T10:47:39;22.41;56.71
69944;DHT22;57257;48.408;-4.498;2023-09-18T10:50:06;22.41;56.56
69944;DHT22;57257;48.408;-4.498;2023-09-18T10:52:35;22.26;55.57
69944;DHT22;57257;48.408;-4.498;2023-09-18T10:55:00;22.22;54.86
69944;DHT22;57257;48.408;-4.498;2023-09-18T10:57:33;22.19;55.93
69944;DHT22;57257;48.408;-4.498;2023-09-18T11:00:00;22.15;55.53
69944;DHT22;57257;48.408;-4.498;2023-09-18T11:02:27;22.08;54.96
69944;DHT22;57257;48.408;-4.498;2023-09-18T11:04:53;22.01;55.47
69944;DHT22;57257;48.408;-4.498;2023-09-18T11:07:23;21.95;56.10
69944;DHT22;57257;48.408;-4.498;2023-09-18T11:09:50;21.92;56.96
69944;DHT22;57257;48.408;-4.498;2023-09-18T11:12:17;21.81;56.38
69944;DHT22;57257;48.408;-4.498;2023-09-18T11:14:49;21.70;56.83
69944;DHT22;57257;48.408;-4.498;2023-09-18T11:20:11;21.64;57.72
69944;DHT22;57257;48.408;-4.498;2023-09-18T11:22:49;21.65;58.11
69944;DHT22;57257;48.408;-4.498;2023-09-18T11:28:13;21.98;58.70
69944;DHT22;57257;48.408;-4.498;2023-09-18T11:30:51;22.08;58.70
69944;DHT22;57257;48.408;-4.498;2023-09-18T11:33:36;22.09;57.42
69944;DHT22;57257;48.408;-4.498;2023-09-18T11:36:04;22.04;58.04
69944;DHT22;57257;48.408;-4.498;2023-09-18T11:38:51;22.08;57.82
69944;DHT22;57257;48.408;-4.498;2023-09-18T11:41:25;22.11;57.63
69944;DHT22;57257;48.408;-4.498;2023-09-18T11:43:52;22.15;58.12
69944;DHT22;57257;48.408;-4.498;2023-09-18T11:46:19;22.19;57.96
69944;DHT22;57257;48.408;-4.498;2023-09-18T11:48:47;22.19;57.52
69944;DHT22;57257;48.408;-4.498;2023-09-18T11:51:21;22.16;57.99
69944;DHT22;57257;48.408;-4.498;2023-09-18T11:53:49;22.21;58.22
69944;DHT22;57257;48.408;-4.498;2023-09-18T11:56:17;22.35;58.81
69944;DHT22;57257;48.408;-4.498;2023-09-18T11:58:47;22.46;58.08
69944;DHT22;57257;48.408;-4.498;2023-09-18T12:01:14;22.52;57.47
69944;DHT22;57257;48.408;-4.498;2023-09-18T12:03:41;22.48;56.70
69944;DHT22;57257;48.408;-4.498;2023-09-18T12:06:07;22.49;56.62
69944;DHT22;57257;48.408;-4.498;2023-09-18T12:08:35;22.49;55.90
69944;DHT22;57257;48.408;-4.498;2023-09-18T12:11:04;22.43;56.40
69944;DHT22;57257;48.408;-4.498;2023-09-18T12:13:33;22.52;56.78
69944;DHT22;57257;48.408;-4.498;2023-09-18T12:16:00;22.66;56.94
69944;DHT22;57257;48.408;-4.498;2023-09-18T12:18:27;22.76;56.88
69944;DHT22;57257;48.408;-4.498;2023-09-18T12:20:56;22.87;55.81
69944;DHT22;57257;48.408;-4.498;2023-09-18T12:23:21;22.87;55.96
69944;DHT22;57257;48.408;-4.498;2023-09-18T12:25:49;22.89;55.66
69944;DHT22;57257;48.408;-4.498;2023-09-18T12:28:16;22.93;55.51
69944;DHT22;57257;48.408;-4.498;2023-09-18T12:30:45;22.96;56.17
69944;DHT22;57257;48.408;-4.498;2023-09-18T12:33:12;23.04;55.23
69944;DHT22;57257;48.408;-4.498;2023-09-18T12:35:40;23.11;55.67
69944;DHT22;57257;48.408;-4.498;2023-09-18T12:38:19;23.26;55.75
69944;DHT22;57257;48.408;-4.498;2023-09-18T12:40:55;23.31;54.43
69944;DHT22;57257;48.408;-4.498;2023-09-18T12:43:22;23.28;54.14
69944;DHT22;57257;48.408;-4.498;2023-09-18T12:45:48;23.28;54.36
69944;DHT22;57257;48.408;-4.498;2023-09-18T12:48:15;23.26;54.35
69944;DHT22;57257;48.408;-4.498;2023-09-18T12:50:41;23.30;55.14
69944;DHT22;57257;48.408;-4.498;2023-09-18T12:53:13;23.33;55.02
69944;DHT22;57257;48.408;-4.498;2023-09-18T12:55:40;23.24;55.06
69944;DHT22;57257;48.408;-4.498;2023-09-18T12:58:06;23.21;55.18
69944;DHT22;57257;48.408;-4.498;2023-09-18T13:00:35;23.18;55.48
69944;DHT22;57257;48.408;-4.498;2023-09-18T13:03:01;23.13;55.25
69944;DHT22;57257;48.408;-4.498;2023-09-18T13:05:30;23.07;55.51
69944;DHT22;57257;48.408;-4.498;2023-09-18T13:08:02;23.16;55.73
69944;DHT22;57257;48.408;-4.498;2023-09-18T13:10:28;23.26;55.75
69944;DHT22;57257;48.408;-4.498;2023-09-18T13:12:53;23.28;55.78
69944;DHT22;57257;48.408;-4.498;2023-09-18T13:15:38;23.33;55.58
69944;DHT22;57257;48.408;-4.498;2023-09-18T13:18:10;23.34;55.77
69944;DHT22;57257;48.408;-4.498;2023-09-18T13:20:39;23.37;55.68
69944;DHT22;57257;48.408;-4.498;2023-09-18T13:23:08;23.43;55.70
69944;DHT22;57257;48.408;-4.498;2023-09-18T13:25:40;23.41;55.25
69944;DHT22;57257;48.408;-4.498;2023-09-18T13:28:09;23.41;55.19
69944;DHT22;57257;48.408;-4.498;2023-09-18T13:30:39;23.36;55.03
69944;DHT22;57257;48.408;-4.498;2023-09-18T13:33:11;23.21;54.90
69944;DHT22;57257;48.408;-4.498;2023-09-18T13:35:42;23.11;55.26
69944;DHT22;57257;48.408;-4.498;2023-09-18T13:38:08;23.13;55.79
69944;DHT22;57257;48.408;-4.498;2023-09-18T13:40:40;23.26;55.83
69944;DHT22;57257;48.408;-4.498;2023-09-18T13:43:06;23.34;55.38
69944;DHT22;57257;48.408;-4.498;2023-09-18T13:45:33;23.36;55.51
69944;DHT22;57257;48.408;-4.498;2023-09-18T13:48:00;23.55;55.56
69944;DHT22;57257;48.408;-4.498;2023-09-18T13:50:26;23.62;55.48
69944;DHT22;57257;48.408;-4.498;2023-09-18T13:52:51;23.65;55.05
69944;DHT22;57257;48.408;-4.498;2023-09-18T13:55:17;23.53;55.13
69944;DHT22;57257;48.408;-4.498;2023-09-18T13:57:42;23.47;55.24
69944;DHT22;57257;48.408;-4.498;2023-09-18T14:00:08;23.41;55.68
69944;DHT22;57257;48.408;-4.498;2023-09-18T14:02:37;23.34;55.66
69944;DHT22;57257;48.408;-4.498;2023-09-18T14:05:03;23.21;55.70
69944;DHT22;57257;48.408;-4.498;2023-09-18T14:07:29;23.10;56.12
69944;DHT22;57257;48.408;-4.498;2023-09-18T14:09:55;23.00;55.94
69944;DHT22;57257;48.408;-4.498;2023-09-18T14:12:20;22.89;56.43
69944;DHT22;57257;48.408;-4.498;2023-09-18T14:14:46;22.80;56.96
69944;DHT22;57257;48.408;-4.498;2023-09-18T14:17:11;22.65;57.82
69944;DHT22;57257;48.408;-4.498;2023-09-18T14:19:37;22.45;59.43
69944;DHT22;57257;48.408;-4.498;2023-09-18T14:22:06;22.25;60.09
69944;DHT22;57257;48.408;-4.498;2023-09-18T14:24:32;22.05;60.70
69944;DHT22;57257;48.408;-4.498;2023-09-18T14:27:00;21.78;61.92
69944;DHT22;57257;48.408;-4.498;2023-09-18T14:29:26;21.60;62.54
69944;DHT22;57257;48.408;-4.498;2023-09-18T14:31:51;21.50;63.62
69944;DHT22;57257;48.408;-4.498;2023-09-18T14:34:17;21.41;63.65
69944;DHT22;57257;48.408;-4.498;2023-09-18T14:36:42;21.34;64.18
69944;DHT22;57257;48.408;-4.498;2023-09-18T14:39:09;21.24;64.56
69944;DHT22;57257;48.408;-4.498;2023-09-18T14:41:38;21.16;64.61
69944;DHT22;57257;48.408;-4.498;2023-09-18T14:44:05;21.10;65.19
69944;DHT22;57257;48.408;-4.498;2023-09-18T14:46:31;21.16;65.56
69944;DHT22;57257;48.408;-4.498;2023-09-18T14:49:00;21.24;65.62
69944;DHT22;57257;48.408;-4.498;2023-09-18T14:51:26;21.36;66.00
69944;DHT22;57257;48.408;-4.498;2023-09-18T14:53:54;21.54;66.14
69944;DHT22;57257;48.408;-4.498;2023-09-18T14:56:20;21.61;65.66
69944;DHT22;57257;48.408;-4.498;2023-09-18T14:58:45;21.67;65.65
69944;DHT22;57257;48.408;-4.498;2023-09-18T15:01:11;21.78;65.82
69944;DHT22;57257;48.408;-4.498;2023-09-18T15:03:37;21.98;65.64
69944;DHT22;57257;48.408;-4.498;2023-09-18T15:06:02;22.09;65.02
69944;DHT22;57257;48.408;-4.498;2023-09-18T15:08:28;22.49;65.09
69944;DHT22;57257;48.408;-4.498;2023-09-18T15:10:53;22.96;64.33
69944;DHT22;57257;48.408;-4.498;2023-09-18T15:13:19;23.47;63.81
69944;DHT22;57257;48.408;-4.498;2023-09-18T15:15:44;23.94;62.89
69944;DHT22;57257;48.408;-4.498;2023-09-18T15:18:11;24.06;61.49
69944;DHT22;57257;48.408;-4.498;2023-09-18T15:20:36;23.77;61.11
69944;DHT22;57257;48.408;-4.498;2023-09-18T15:23:02;23.47;61.43
69944;DHT22;57257;48.408;-4.498;2023-09-18T15:25:28;23.21;61.39
69944;DHT22;57257;48.408;-4.498;2023-09-18T15:27:53;22.99;60.81
69944;DHT22;57257;48.408;-4.498;2023-09-18T15:30:20;22.73;60.96
69944;DHT22;57257;48.408;-4.498;2023-09-18T15:32:55;22.56;61.13
69944;DHT22;57257;48.408;-4.498;2023-09-18T15:35:25;22.41;61.39
69944;DHT22;57257;48.408;-4.498;2023-09-18T15:37:51;22.26;61.14
69944;DHT22;57257;48.408;-4.498;2023-09-18T15:40:18;22.15;60.83